DeKalb, South Carolina
Current Conditions -  °F | °C
As of 3:15 PM on Sunday 21 Dec 2014 (Local Time) from KCDN Reporting Station
Broken Clouds Broken Clouds  
Wind Chill: 52°   Ceiling: 9000
Heat Index: 52°   Visibility: 10mi
Dew Point: 39°   Wind: 8mph
Humidity: 62%   Direction: 60°ENE
Pressure: 30.18"   Gusts: NA
Location:  34.4453°N, 80.603°W
Report Text: KCDN 212015Z AUTO 06007KT 10SM BKN090 11/04 A3018 RMK AO2 TSNO
Loading
Personal Weather Stations






























Interactive Weather Map New forecast layout! Learn more

10-Day Weather Forecast

Advertisements
Track Severe Weather on mobile